Terminal Aerodrome Forecast
Issued by NWS North Platte, NE

Home | Current Version | Previous Version | Text Only | Print | Product List | Glossary On
Versions: 1 2 3 4 5 6 7 8 9 10 11 12 13 14 15 16 17 18
000
FTUS43 KLBF 281700 RRA
TAFVTN
TAF
KVTN 281741Z 2818/2918 18004KT P6SM BKN100
     FM290200 03004KT 2SM -SN BR OVC015
     FM290600 02010KT 1SM -SN BR OVC007=

USA.gov is the U.S. government's official web portal to all federal, state and local government web resources and services.